FW4473 Weather Reports


Display with metric or nautical units.
time (UTC)temp
F
wind
direction
speed
MPH
gust
MPH
rain 1hr
in
rain 24hr
in
rain mn
in
humidity
%
barometer
mb
20220808124528 86 245 0.0 0.0 0.00 0.00 0.00 53 1016.9
20220808123022 87 245 0.0 0.0 0.00 0.00 0.00 52 1016.7
20220808121520 87 245 0.0 0.0 0.00 0.00 0.00 50 1016.5
20220808120019 87 325 0.0 0.0 0.00 0.00 0.00 50 1016.4
20220808114517 87 326 0.0 0.0 0.00 0.00 0.00 50 1016.3
20220808113015 88 325 0.0 0.0 0.00 0.00 0.00 48 1016.2
20220808111517 88 325 0.0 0.0 0.00 0.00 0.00 47 1016.1
20220808110012 88 325 0.0 0.0 0.00 0.00 0.00 46 1015.9
20220808104511 88 325 0.0 0.0 0.00 0.00 0.00 46 1015.9
20220808103013 88 325 0.0 0.0 0.00 0.00 0.00 46 1016.0
20220808101510 89 325 0.0 0.0 0.00 0.00 0.00 46 1016.0
20220808100009 89 325 0.0 0.0 0.00 0.00 0.00 46 1015.9
20220808094508 89 5 0.0 0.0 0.00 0.00 0.00 45 1015.9
20220808093008 89 14 0.0 0.0 0.00 0.00 0.00 45 1015.8
20220808091507 89 51 0.0 0.0 0.00 0.00 0.00 44 1015.7
20220808090006 89 51 0.0 0.0 0.00 0.00 0.00 44 1015.6
20220808084505 89 51 0.0 0.0 0.00 0.00 0.00 44 1015.7
20220808083004 89 51 0.0 0.0 0.00 0.00 0.00 44 1015.6
20220808081503 89 51 0.0 0.0 0.00 0.00 0.00 44 1015.8
20220808080001 89 51 0.0 0.0 0.00 0.00 0.00 45 1016.0
20220808074603 89 57 0.0 3.0 0.00 0.00 0.00 45 1016.2
20220808073059 89 234 0.0 2.0 0.00 0.00 0.00 45 1016.1
20220808071600 89 234 0.0 2.0 0.00 0.00 0.00 44 1016.1
20220808070105 89 238 1.0 3.0 0.00 0.00 0.00 44 1016.1
20220808064555 90 257 1.0 3.0 0.00 0.00 0.00 44 1016.1
20220808063054 90 265 0.0 3.0 0.00 0.00 0.00 43 1016.0
20220808061553 90 302 0.0 2.0 0.00 0.00 0.00 42 1015.8
20220808060056 91 317 0.0 2.0 0.00 0.00 0.00 39 1016.0
20220808054553 91 321 0.0 1.0 0.00 0.00 0.00 40 1015.9
20220808053053 91 5 0.0 1.0 0.00 0.00 0.00 39 1016.1
20220808051552 91 355 0.0 3.0 0.00 0.00 0.00 40 1016.2
20220808050054 91 11 0.0 0.0 0.00 0.00 0.00 40 1016.5
20220808044551 91 27 0.0 4.0 0.00 0.00 0.00 40 1016.3
20220808043050 91 44 1.0 6.0 0.00 0.00 0.00 42 1016.3
20220808041550 91 57 1.0 5.0 0.00 0.00 0.00 43 1016.0
20220808040052 92 360 0.0 6.0 0.00 0.00 0.00 41 1016.2
20220808034550 93 44 3.0 10.0 0.00 0.00 0.00 38 1015.8
20220808033050 96 36 4.0 10.0 0.00 0.00 0.00 33 1015.3
20220808031549 99 107 7.0 17.0 0.00 0.00 0.00 29 1014.9
20220808030051 100 257 0.0 0.0 0.00 0.00 0.00 27 1014.1
20220808024554 100 257 1.0 3.0 0.00 0.00 0.00 27 1013.8
20220808023105 101 254 1.0 4.0 0.00 0.00 0.00 26 1013.5
20220808021550 101 256 0.0 1.0 0.00 0.00 0.00 25 1013.6
20220808020051 102 292 0.0 3.0 0.00 0.00 0.00 24 1013.4
20220808014546 103 252 2.0 4.0 0.00 0.00 0.00 23 1013.2
20220808013058 103 248 2.0 6.0 0.00 0.00 0.00 23 1013.3
20220808011558 104 300 2.0 8.0 0.00 0.00 0.00 23 1012.9
20220808010058 104 253 2.0 6.0 0.00 0.00 0.00 23 1012.9
20220808004545 104 288 1.0 6.0 0.00 0.00 0.00 24 1012.8
20220808003041 104 283 2.0 6.0 0.00 0.00 0.00 24 1013.0
20220808001541 104 271 5.0 8.0 0.00 0.00 0.00 24 1012.9
20220808000142 104 204 4.0 10.0 0.00 0.00 0.00 24 1012.9
20220807234537 104 244 2.0 10.0 0.00 0.00 0.00 24 1013.0
20220807233035 105 281 2.0 8.0 0.00 0.00 0.00 22 1012.9
20220807231535 105 257 3.0 8.0 0.00 0.00 0.00 22 1013.2
20220807230034 104 266 3.0 8.0 0.00 0.00 0.00 21 1013.3
20220807224532 104 294 2.0 9.0 0.00 0.00 0.00 21 1013.3
20220807223033 104 290 2.0 12.0 0.00 0.00 0.00 22 1013.4
20220807221530 105 267 3.0 8.0 0.00 0.00 0.00 22 1013.6
20220807220028 104 252 2.0 6.0 0.00 0.00 0.00 22 1014.0
20220807214526 104 296 0.0 9.0 0.00 0.00 0.00 23 1014.1
20220807213025 103 241 2.0 7.0 0.00 0.00 0.00 23 1014.3
20220807211525 103 268 3.0 8.0 0.00 0.00 0.00 23 1014.7
20220807210025 103 138 2.0 9.0 0.00 0.00 0.00 23 1014.9
20220807204523 103 133 2.0 6.0 0.00 0.00 0.00 24 1015.1
20220807203026 101 249 1.0 7.0 0.00 0.00 0.00 25 1015.3
20220807201520 101 260 1.0 7.0 0.00 0.00 0.00 25 1015.4
20220807200027 101 95 0.0 8.0 0.00 0.00 0.00 25 1015.7
20220807194513 100 232 2.0 5.0 0.00 0.00 0.00 26 1015.9
20220807193009 100 251 2.0 7.0 0.00 0.00 0.00 27 1016.1
20220807191506 98 224 1.0 4.0 0.00 0.00 0.00 28 1016.2
20220807190003 98 165 1.0 3.0 0.00 0.00 0.00 28 1016.3
20220807184601 97 138 2.0 6.0 0.00 0.00 0.00 29 1016.4
20220807183055 96 138 0.0 1.0 0.00 0.00 0.00 30 1016.5
20220807181553 95 134 0.0 3.0 0.00 0.00 0.00 30 1016.5
20220807180050 96 146 0.0 6.0 0.00 0.00 0.00 30 1016.7
20220807174548 95 137 3.0 9.0 0.00 0.00 0.00 31 1016.9
20220807173043 95 142 3.0 7.0 0.00 0.00 0.00 31 1016.9
20220807171548 95 135 4.0 9.0 0.00 0.00 0.00 32 1016.8
20220807170051 95 92 2.0 5.0 0.00 0.00 0.00 31 1016.6
20220807164534 94 88 0.0 4.0 0.00 0.00 0.00 33 1016.6
20220807163033 92 342 0.0 2.0 0.00 0.00 0.00 35 1016.6
20220807161533 91 39 0.0 2.0 0.00 0.00 0.00 36 1016.6
20220807160031 91 14 0.0 2.0 0.00 0.00 0.00 35 1016.7
20220807154530 90 324 0.0 4.0 0.00 0.00 0.00 36 1016.7
20220807153028 90 23 1.0 3.0 0.00 0.00 0.00 36 1016.8
20220807151525 89 9 0.0 4.0 0.00 0.00 0.00 37 1016.9
20220807150023 89 349 0.0 3.0 0.00 0.00 0.00 38 1016.8
20220807144524 88 343 1.0 3.0 0.00 0.00 0.00 40 1017.0
20220807143020 87 355 0.0 4.0 0.00 0.00 0.00 40 1016.9
20220807141518 87 350 0.0 4.0 0.00 0.00 0.00 40 1017.0
20220807140019 87 360 1.0 4.0 0.00 0.00 0.00 43 1017.0
20220807134518 86 272 0.0 0.0 0.00 0.00 0.00 43 1017.2
20220807133015 86 360 0.0 0.0 0.00 0.00 0.00 43 1017.2
20220807131514 86 346 0.0 1.0 0.00 0.00 0.00 42 1017.1
20220807130012 86 355 0.0 0.0 0.00 0.00 0.00 40 1017.1